sensor_id;sensor_type;location;lat;lon;timestamp;temperature;humidity
12233;DHT22;6179;51.748;8.728;2022-11-20T00:03:39;-3.70;98.30
12233;DHT22;6179;51.748;8.728;2022-11-20T00:09:40;-3.70;98.30
12233;DHT22;6179;51.748;8.728;2022-11-20T00:15:40;-3.60;98.30
12233;DHT22;6179;51.748;8.728;2022-11-20T00:21:41;-3.10;98.30
12233;DHT22;6179;51.748;8.728;2022-11-20T00:27:42;-3.40;98.30
12233;DHT22;6179;51.748;8.728;2022-11-20T00:33:44;-3.60;98.30
12233;DHT22;6179;51.748;8.728;2022-11-20T00:39:44;-3.60;98.30
12233;DHT22;6179;51.748;8.728;2022-11-20T00:45:45;-3.50;98.30
12233;DHT22;6179;51.748;8.728;2022-11-20T00:51:46;-3.10;98.30
12233;DHT22;6179;51.748;8.728;2022-11-20T00:57:47;-3.20;98.30
12233;DHT22;6179;51.748;8.728;2022-11-20T01:03:50;-3.20;98.30
12233;DHT22;6179;51.748;8.728;2022-11-20T01:09:51;-3.50;98.30
12233;DHT22;6179;51.748;8.728;2022-11-20T01:15:52;-3.70;98.30
12233;DHT22;6179;51.748;8.728;2022-11-20T01:21:54;-3.80;98.30
12233;DHT22;6179;51.748;8.728;2022-11-20T01:27:55;-3.90;98.30
12233;DHT22;6179;51.748;8.728;2022-11-20T01:33:59;-3.70;98.30
12233;DHT22;6179;51.748;8.728;2022-11-20T01:40:03;-3.90;98.30
12233;DHT22;6179;51.748;8.728;2022-11-20T01:46:12;-4.00;98.30
12233;DHT22;6179;51.748;8.728;2022-11-20T01:52:41;-3.80;98.30
12233;DHT22;6179;51.748;8.728;2022-11-20T01:58:49;-4.00;98.30
12233;DHT22;6179;51.748;8.728;2022-11-20T02:04:57;-4.10;98.30
12233;DHT22;6179;51.748;8.728;2022-11-20T02:11:03;-4.40;98.30
12233;DHT22;6179;51.748;8.728;2022-11-20T02:17:03;-4.00;98.30
12233;DHT22;6179;51.748;8.728;2022-11-20T02:29:42;-4.40;98.30
12233;DHT22;6179;51.748;8.728;2022-11-20T02:35:48;-4.40;98.30
12233;DHT22;6179;51.748;8.728;2022-11-20T02:41:48;-4.20;98.30
12233;DHT22;6179;51.748;8.728;2022-11-20T02:47:50;-4.40;98.30
12233;DHT22;6179;51.748;8.728;2022-11-20T02:53:51;-4.00;98.30
12233;DHT22;6179;51.748;8.728;2022-11-20T02:59:52;-4.30;98.30
12233;DHT22;6179;51.748;8.728;2022-11-20T03:05:53;-4.60;98.30
12233;DHT22;6179;51.748;8.728;2022-11-20T03:11:54;-4.10;98.30
12233;DHT22;6179;51.748;8.728;2022-11-20T03:17:54;-4.10;98.30
12233;DHT22;6179;51.748;8.728;2022-11-20T03:23:56;-4.70;98.30
12233;DHT22;6179;51.748;8.728;2022-11-20T03:29:56;-5.00;98.30
12233;DHT22;6179;51.748;8.728;2022-11-20T03:36:01;-5.00;98.30
12233;DHT22;6179;51.748;8.728;2022-11-20T03:42:06;-4.90;98.30
12233;DHT22;6179;51.748;8.728;2022-11-20T03:48:29;-5.10;98.30
12233;DHT22;6179;51.748;8.728;2022-11-20T03:54:30;-4.70;98.30
12233;DHT22;6179;51.748;8.728;2022-11-20T04:00:30;-4.80;98.30
12233;DHT22;6179;51.748;8.728;2022-11-20T04:06:37;-4.80;98.30
12233;DHT22;6179;51.748;8.728;2022-11-20T04:12:38;-4.80;98.30
12233;DHT22;6179;51.748;8.728;2022-11-20T04:18:39;-4.30;98.30
12233;DHT22;6179;51.748;8.728;2022-11-20T04:24:39;-4.50;98.30
12233;DHT22;6179;51.748;8.728;2022-11-20T04:30:40;-5.10;98.30
12233;DHT22;6179;51.748;8.728;2022-11-20T04:36:41;-5.10;98.30
12233;DHT22;6179;51.748;8.728;2022-11-20T04:42:42;-4.80;98.30
12233;DHT22;6179;51.748;8.728;2022-11-20T04:48:43;-5.20;98.30
12233;DHT22;6179;51.748;8.728;2022-11-20T04:54:45;-5.50;98.30
12233;DHT22;6179;51.748;8.728;2022-11-20T05:00:45;-5.50;98.30
12233;DHT22;6179;51.748;8.728;2022-11-20T05:06:46;-5.30;98.30
12233;DHT22;6179;51.748;8.728;2022-11-20T05:12:47;-5.10;98.30
12233;DHT22;6179;51.748;8.728;2022-11-20T05:18:48;-5.00;98.30
12233;DHT22;6179;51.748;8.728;2022-11-20T05:24:49;-4.90;98.30
12233;DHT22;6179;51.748;8.728;2022-11-20T05:30:51;-5.20;98.30
12233;DHT22;6179;51.748;8.728;2022-11-20T05:36:51;-4.90;98.30
12233;DHT22;6179;51.748;8.728;2022-11-20T05:42:52;-4.70;98.30
12233;DHT22;6179;51.748;8.728;2022-11-20T05:48:53;-4.70;98.30
12233;DHT22;6179;51.748;8.728;2022-11-20T05:54:54;-4.10;98.30
12233;DHT22;6179;51.748;8.728;2022-11-20T06:01:02;-4.10;98.30
12233;DHT22;6179;51.748;8.728;2022-11-20T06:07:05;-4.10;98.30
12233;DHT22;6179;51.748;8.728;2022-11-20T06:13:09;-4.00;98.30
12233;DHT22;6179;51.748;8.728;2022-11-20T06:19:09;-4.30;98.30
12233;DHT22;6179;51.748;8.728;2022-11-20T06:25:10;-4.30;98.30
12233;DHT22;6179;51.748;8.728;2022-11-20T06:31:13;-3.80;98.30
12233;DHT22;6179;51.748;8.728;2022-11-20T06:37:15;-3.70;98.30
12233;DHT22;6179;51.748;8.728;2022-11-20T06:43:15;-3.60;98.30
12233;DHT22;6179;51.748;8.728;2022-11-20T06:49:16;-3.70;98.30
12233;DHT22;6179;51.748;8.728;2022-11-20T06:55:17;-3.70;98.30
12233;DHT22;6179;51.748;8.728;2022-11-20T07:01:18;-3.70;98.30
12233;DHT22;6179;51.748;8.728;2022-11-20T07:07:18;-3.80;98.30
12233;DHT22;6179;51.748;8.728;2022-11-20T07:13:19;-3.80;98.30
12233;DHT22;6179;51.748;8.728;2022-11-20T07:19:20;-3.30;98.30
12233;DHT22;6179;51.748;8.728;2022-11-20T07:25:22;-3.30;98.30
12233;DHT22;6179;51.748;8.728;2022-11-20T07:31:23;-3.30;98.30
12233;DHT22;6179;51.748;8.728;2022-11-20T07:37:24;-3.30;98.30
12233;DHT22;6179;51.748;8.728;2022-11-20T07:43:24;-3.10;98.30
12233;DHT22;6179;51.748;8.728;2022-11-20T07:49:25;-2.90;98.30
12233;DHT22;6179;51.748;8.728;2022-11-20T07:55:26;-2.20;98.30
12233;DHT22;6179;51.748;8.728;2022-11-20T08:01:27;-2.40;98.30
12233;DHT22;6179;51.748;8.728;2022-11-20T08:07:27;-2.40;98.30
12233;DHT22;6179;51.748;8.728;2022-11-20T08:13:28;-2.50;98.30
12233;DHT22;6179;51.748;8.728;2022-11-20T08:19:47;-2.20;98.30
12233;DHT22;6179;51.748;8.728;2022-11-20T08:25:49;-1.90;98.30
12233;DHT22;6179;51.748;8.728;2022-11-20T08:31:51;-1.40;98.30
12233;DHT22;6179;51.748;8.728;2022-11-20T08:37:52;-1.50;98.30
12233;DHT22;6179;51.748;8.728;2022-11-20T08:43:58;-0.80;98.30
12233;DHT22;6179;51.748;8.728;2022-11-20T08:50:00;-1.10;98.30
12233;DHT22;6179;51.748;8.728;2022-11-20T08:56:01;-0.80;98.30
12233;DHT22;6179;51.748;8.728;2022-11-20T09:02:02;-0.60;98.30
12233;DHT22;6179;51.748;8.728;2022-11-20T09:08:03;-0.40;98.30
12233;DHT22;6179;51.748;8.728;2022-11-20T09:14:04;-0.40;98.30
12233;DHT22;6179;51.748;8.728;2022-11-20T09:20:05;-0.90;98.30
12233;DHT22;6179;51.748;8.728;2022-11-20T09:26:11;-0.80;98.30
12233;DHT22;6179;51.748;8.728;2022-11-20T09:32:13;-0.60;98.30
12233;DHT22;6179;51.748;8.728;2022-11-20T09:38:13;-0.60;98.30
12233;DHT22;6179;51.748;8.728;2022-11-20T09:57:27;0.10;98.30
12233;DHT22;6179;51.748;8.728;2022-11-20T10:09:53;-0.20;98.30
12233;DHT22;6179;51.748;8.728;2022-11-20T10:23:37;0.20;98.30
12233;DHT22;6179;51.748;8.728;2022-11-20T10:29:32;0.30;98.30
12233;DHT22;6179;51.748;8.728;2022-11-20T12:46:58;3.10;93.60
12233;DHT22;6179;51.748;8.728;2022-11-20T13:06:16;3.10;94.20
12233;DHT22;6179;51.748;8.728;2022-11-20T13:12:43;3.00;93.70
12233;DHT22;6179;51.748;8.728;2022-11-20T13:18:48;2.90;93.10
12233;DHT22;6179;51.748;8.728;2022-11-20T13:24:52;3.10;92.00
12233;DHT22;6179;51.748;8.728;2022-11-20T13:30:54;3.60;88.80
12233;DHT22;6179;51.748;8.728;2022-11-20T13:36:58;4.00;86.60
12233;DHT22;6179;51.748;8.728;2022-11-20T13:43:39;3.50;88.80
12233;DHT22;6179;51.748;8.728;2022-11-20T13:49:42;3.70;87.10
12233;DHT22;6179;51.748;8.728;2022-11-20T14:02:27;3.50;86.80
12233;DHT22;6179;51.748;8.728;2022-11-20T14:08:44;3.10;88.30
12233;DHT22;6179;51.748;8.728;2022-11-20T14:14:52;3.10;88.60
12233;DHT22;6179;51.748;8.728;2022-11-20T14:20:54;3.10;88.50
12233;DHT22;6179;51.748;8.728;2022-11-20T14:26:55;3.40;88.30
12233;DHT22;6179;51.748;8.728;2022-11-20T14:33:00;3.60;87.40
12233;DHT22;6179;51.748;8.728;2022-11-20T14:39:03;3.60;88.30
12233;DHT22;6179;51.748;8.728;2022-11-20T14:45:04;3.60;88.80
12233;DHT22;6179;51.748;8.728;2022-11-20T14:51:05;3.70;88.90
12233;DHT22;6179;51.748;8.728;2022-11-20T14:57:23;3.60;89.00
12233;DHT22;6179;51.748;8.728;2022-11-20T15:03:39;3.70;88.90
12233;DHT22;6179;51.748;8.728;2022-11-20T15:09:40;3.80;88.50
12233;DHT22;6179;51.748;8.728;2022-11-20T15:15:51;3.70;88.90
12233;DHT22;6179;51.748;8.728;2022-11-20T15:21:55;3.70;88.50
12233;DHT22;6179;51.748;8.728;2022-11-20T15:27:56;3.40;90.50
12233;DHT22;6179;51.748;8.728;2022-11-20T15:33:57;3.50;90.20
12233;DHT22;6179;51.748;8.728;2022-11-20T15:39:58;3.50;90.40
12233;DHT22;6179;51.748;8.728;2022-11-20T15:46:03;3.50;89.70
12233;DHT22;6179;51.748;8.728;2022-11-20T15:52:08;3.50;90.60
12233;DHT22;6179;51.748;8.728;2022-11-20T15:58:09;3.70;90.00
12233;DHT22;6179;51.748;8.728;2022-11-20T16:04:12;3.90;88.50
12233;DHT22;6179;51.748;8.728;2022-11-20T16:10:14;3.60;90.30
12233;DHT22;6179;51.748;8.728;2022-11-20T16:16:33;3.40;90.40
12233;DHT22;6179;51.748;8.728;2022-11-20T16:22:35;3.40;90.80
12233;DHT22;6179;51.748;8.728;2022-11-20T16:28:36;3.90;89.00
12233;DHT22;6179;51.748;8.728;2022-11-20T16:34:37;4.00;88.20
12233;DHT22;6179;51.748;8.728;2022-11-20T16:40:37;3.50;89.80
12233;DHT22;6179;51.748;8.728;2022-11-20T16:46:38;3.30;91.50
12233;DHT22;6179;51.748;8.728;2022-11-20T16:52:40;2.90;91.80
12233;DHT22;6179;51.748;8.728;2022-11-20T16:58:41;2.70;94.00
12233;DHT22;6179;51.748;8.728;2022-11-20T17:04:42;2.80;93.10
12233;DHT22;6179;51.748;8.728;2022-11-20T17:10:42;2.80;93.60
12233;DHT22;6179;51.748;8.728;2022-11-20T17:16:43;2.70;94.10
12233;DHT22;6179;51.748;8.728;2022-11-20T17:22:44;2.80;93.90
12233;DHT22;6179;51.748;8.728;2022-11-20T17:28:46;2.90;94.00
12233;DHT22;6179;51.748;8.728;2022-11-20T17:34:53;3.00;94.60
12233;DHT22;6179;51.748;8.728;2022-11-20T17:41:05;3.10;94.50
12233;DHT22;6179;51.748;8.728;2022-11-20T17:47:07;3.00;95.60
12233;DHT22;6179;51.748;8.728;2022-11-20T17:53:08;2.90;97.20
12233;DHT22;6179;51.748;8.728;2022-11-20T17:59:10;2.70;98.30
12233;DHT22;6179;51.748;8.728;2022-11-20T18:05:13;2.30;98.30
12233;DHT22;6179;51.748;8.728;2022-11-20T18:17:24;2.10;98.30
12233;DHT22;6179;51.748;8.728;2022-11-20T18:23:25;2.20;98.30
12233;DHT22;6179;51.748;8.728;2022-11-20T18:29:26;2.30;98.30
12233;DHT22;6179;51.748;8.728;2022-11-20T18:35:27;2.70;98.30
12233;DHT22;6179;51.748;8.728;2022-11-20T18:41:29;2.60;98.30
12233;DHT22;6179;51.748;8.728;2022-11-20T18:47:49;2.70;98.30
12233;DHT22;6179;51.748;8.728;2022-11-20T18:53:50;2.60;98.30
12233;DHT22;6179;51.748;8.728;2022-11-20T18:59:51;2.50;98.30
12233;DHT22;6179;51.748;8.728;2022-11-20T19:05:53;2.50;98.30
12233;DHT22;6179;51.748;8.728;2022-11-20T19:11:53;2.30;98.30
12233;DHT22;6179;51.748;8.728;2022-11-20T19:17:54;2.60;98.30
12233;DHT22;6179;51.748;8.728;2022-11-20T19:23:58;2.50;98.30
12233;DHT22;6179;51.748;8.728;2022-11-20T19:30:00;2.70;98.30
12233;DHT22;6179;51.748;8.728;2022-11-20T19:36:12;2.80;98.30
12233;DHT22;6179;51.748;8.728;2022-11-20T19:42:17;2.60;98.30
12233;DHT22;6179;51.748;8.728;2022-11-20T19:48:18;2.70;98.30
12233;DHT22;6179;51.748;8.728;2022-11-20T19:54:18;2.60;98.30
12233;DHT22;6179;51.748;8.728;2022-11-20T20:00:19;2.80;98.30
12233;DHT22;6179;51.748;8.728;2022-11-20T20:06:23;2.60;98.30
12233;DHT22;6179;51.748;8.728;2022-11-20T20:12:25;2.70;98.30
12233;DHT22;6179;51.748;8.728;2022-11-20T20:18:26;2.80;98.30
12233;DHT22;6179;51.748;8.728;2022-11-20T20:24:27;3.10;98.30
12233;DHT22;6179;51.748;8.728;2022-11-20T20:30:27;3.00;98.30
12233;DHT22;6179;51.748;8.728;2022-11-20T20:36:28;3.00;98.30
12233;DHT22;6179;51.748;8.728;2022-11-20T20:42:29;2.80;98.30
12233;DHT22;6179;51.748;8.728;2022-11-20T20:48:31;2.90;98.30
12233;DHT22;6179;51.748;8.728;2022-11-20T20:54:32;2.40;98.30
12233;DHT22;6179;51.748;8.728;2022-11-20T21:00:33;3.00;98.30
12233;DHT22;6179;51.748;8.728;2022-11-20T21:06:33;2.90;98.30
12233;DHT22;6179;51.748;8.728;2022-11-20T21:12:34;2.80;98.30
12233;DHT22;6179;51.748;8.728;2022-11-20T21:18:35;2.90;98.30
12233;DHT22;6179;51.748;8.728;2022-11-20T21:24:36;2.80;98.30
12233;DHT22;6179;51.748;8.728;2022-11-20T21:30:37;2.60;98.30
12233;DHT22;6179;51.748;8.728;2022-11-20T21:36:38;2.60;98.30
12233;DHT22;6179;51.748;8.728;2022-11-20T21:42:39;2.70;98.30
12233;DHT22;6179;51.748;8.728;2022-11-20T21:48:40;2.70;98.30
12233;DHT22;6179;51.748;8.728;2022-11-20T21:54:43;2.90;98.30
12233;DHT22;6179;51.748;8.728;2022-11-20T22:00:44;3.00;98.30
12233;DHT22;6179;51.748;8.728;2022-11-20T22:06:45;2.80;98.30
12233;DHT22;6179;51.748;8.728;2022-11-20T22:12:45;2.90;98.30
12233;DHT22;6179;51.748;8.728;2022-11-20T22:18:51;3.10;98.30
12233;DHT22;6179;51.748;8.728;2022-11-20T22:24:53;3.20;98.30
12233;DHT22;6179;51.748;8.728;2022-11-20T22:30:57;3.30;98.30
12233;DHT22;6179;51.748;8.728;2022-11-20T22:36:59;2.90;98.30
12233;DHT22;6179;51.748;8.728;2022-11-20T22:43:00;2.90;98.30
12233;DHT22;6179;51.748;8.728;2022-11-20T22:49:06;3.10;98.30
12233;DHT22;6179;51.748;8.728;2022-11-20T22:55:10;3.10;98.30
12233;DHT22;6179;51.748;8.728;2022-11-20T23:01:21;2.80;98.30
12233;DHT22;6179;51.748;8.728;2022-11-20T23:07:22;2.50;98.30
12233;DHT22;6179;51.748;8.728;2022-11-20T23:13:23;2.50;98.30
12233;DHT22;6179;51.748;8.728;2022-11-20T23:19:24;2.70;98.30
12233;DHT22;6179;51.748;8.728;2022-11-20T23:25:24;2.70;98.30
12233;DHT22;6179;51.748;8.728;2022-11-20T23:31:27;2.70;98.30
12233;DHT22;6179;51.748;8.728;2022-11-20T23:37:29;2.80;98.30
12233;DHT22;6179;51.748;8.728;2022-11-20T23:43:30;2.80;98.30
12233;DHT22;6179;51.748;8.728;2022-11-20T23:49:32;2.70;98.30
12233;DHT22;6179;51.748;8.728;2022-11-20T23:55:33;2.70;98.30
